Time;durP1;ratioP1;P1;durP2;ratioP2;P2;SDS_P1;SDS_P2;PMS_P1;PMS_P2;Temp;Humidity;BMP_temperature;BMP_pressure;BME280_temperature;BME280_humidity;BME280_pressure;Samples;Min_cycle;Max_cycle;Signal;HPM_P1;HPM_P2
2022/12/08 00:00:54;;;;;;;10.77;5.63;;;4.60;99.70;;;;;;5091387;28;20050;-84
2022/12/08 00:03:19;;;;;;;11.83;6.53;;;4.60;99.70;;;;;;5092387;28;20029;-82
2022/12/08 00:11:16;;;;;;;9.55;5.97;;;4.70;99.80;;;;;;5093526;28;20084;-82
2022/12/08 00:13:42;;;;;;;10.27;5.83;;;4.70;99.80;;;;;;5091818;28;20392;-83
2022/12/08 00:16:08;;;;;;;16.50;6.77;;;4.60;99.80;;;;;;5094614;28;20541;-83
2022/12/08 00:18:34;;;;;;;11.20;6.40;;;4.70;99.90;;;;;;5095023;28;20020;-83
2022/12/08 00:21:00;;;;;;;9.90;6.57;;;4.70;99.90;;;;;;5092190;28;20483;-83
2022/12/08 00:23:26;;;;;;;14.43;7.00;;;4.70;99.90;;;;;;5091984;28;20029;-83
2022/12/08 00:25:52;;;;;;;11.70;6.20;;;4.70;99.90;;;;;;5092902;28;20027;-83
2022/12/08 00:28:17;;;;;;;11.37;6.57;;;4.70;99.90;;;;;;5075024;28;20024;-83
2022/12/08 00:30:43;;;;;;;12.10;6.17;;;4.70;99.90;;;;;;5074979;28;20051;-83
2022/12/08 00:33:10;;;;;;;13.40;6.57;;;4.60;99.90;;;;;;5093028;28;20070;-84
2022/12/08 00:35:35;;;;;;;12.43;6.30;;;4.60;99.90;;;;;;5074860;28;20101;-84
2022/12/08 00:38:01;;;;;;;10.90;6.43;;;4.60;99.90;;;;;;5091852;28;20406;-83
2022/12/08 00:40:27;;;;;;;9.60;5.20;;;4.60;99.90;;;;;;5091732;28;20032;-83
2022/12/08 00:42:53;;;;;;;8.63;5.17;;;4.60;99.90;;;;;;5091725;28;20054;-83
2022/12/08 00:45:19;;;;;;;9.17;5.33;;;4.60;99.90;;;;;;5094373;28;20020;-83
2022/12/08 00:47:44;;;;;;;8.13;4.93;;;4.60;99.90;;;;;;5095248;28;20040;-83
2022/12/08 00:50:10;;;;;;;8.43;4.43;;;4.70;99.90;;;;;;5095521;28;20031;-83
2022/12/08 00:52:36;;;;;;;11.87;5.60;;;4.70;99.90;;;;;;5095687;28;20094;-83
2022/12/08 00:55:03;;;;;;;8.77;4.90;;;4.70;99.90;;;;;;5095438;28;20040;-83
2022/12/08 00:57:28;;;;;;;9.67;5.00;;;4.70;99.90;;;;;;5095261;28;20120;-83
2022/12/08 00:59:54;;;;;;;10.10;6.40;;;4.70;99.90;;;;;;5078377;28;20062;-83
2022/12/08 01:02:19;;;;;;;11.10;5.27;;;4.70;99.90;;;;;;5095182;28;20109;-83
2022/12/08 01:04:45;;;;;;;12.07;5.47;;;4.70;99.90;;;;;;5096428;28;20024;-83
2022/12/08 01:07:11;;;;;;;11.07;5.43;;;4.80;99.90;;;;;;5078131;28;20024;-83
2022/12/08 01:09:36;;;;;;;8.60;4.40;;;4.70;99.90;;;;;;5095013;28;20020;-83
2022/12/08 01:12:02;;;;;;;10.77;5.47;;;4.70;99.90;;;;;;5095222;28;20042;-83
2022/12/08 01:14:28;;;;;;;9.17;5.17;;;4.70;99.90;;;;;;5095056;28;20037;-84
2022/12/08 01:16:53;;;;;;;10.17;5.00;;;4.80;99.90;;;;;;5095167;28;20028;-84
2022/12/08 01:19:19;;;;;;;9.63;5.67;;;4.70;99.90;;;;;;5077976;28;20028;-84
2022/12/08 01:21:45;;;;;;;10.03;6.37;;;4.80;99.90;;;;;;5077932;28;20025;-83
2022/12/08 01:24:16;;;;;;;12.83;7.10;;;4.80;99.90;;;;;;5078086;28;20140;-84
2022/12/08 01:26:43;;;;;;;15.33;8.50;;;4.90;99.90;;;;;;5094755;28;20066;-84
2022/12/08 01:29:09;;;;;;;11.10;7.53;;;4.80;99.90;;;;;;5094607;28;20077;-83
2022/12/08 01:31:35;;;;;;;11.27;7.60;;;4.80;99.90;;;;;;5094676;28;20024;-84
2022/12/08 01:34:01;;;;;;;15.60;9.27;;;4.80;99.90;;;;;;5094710;28;20028;-83
2022/12/08 01:36:29;;;;;;;14.70;8.63;;;4.80;99.90;;;;;;5094824;28;20050;-83
2022/12/08 01:39:02;;;;;;;13.03;8.30;;;4.80;99.90;;;;;;5094640;28;20403;-84
2022/12/08 01:41:33;;;;;;;15.70;10.10;;;4.80;99.90;;;;;;5095851;28;20028;-83
2022/12/08 01:44:19;;;;;;;13.07;8.90;;;4.90;99.90;;;;;;5094555;28;20020;-83
2022/12/08 01:46:48;;;;;;;18.13;11.20;;;4.80;99.90;;;;;;5074177;28;20045;-83
2022/12/08 01:49:16;;;;;;;16.57;10.60;;;4.80;99.90;;;;;;5095175;28;20113;-82
2022/12/08 01:51:49;;;;;;;18.20;10.50;;;4.80;99.90;;;;;;5099232;28;20507;-83
2022/12/08 01:54:15;;;;;;;16.67;10.10;;;4.80;99.90;;;;;;5099040;28;20107;-83
2022/12/08 01:57:14;;;;;;;17.23;12.37;;;4.80;99.90;;;;;;5081580;28;20024;-84
2022/12/08 01:59:48;;;;;;;16.87;11.47;;;4.80;99.90;;;;;;5081353;28;20040;-83
2022/12/08 02:02:14;;;;;;;16.13;10.57;;;4.80;99.90;;;;;;5096864;28;20021;-83
2022/12/08 02:04:40;;;;;;;19.53;11.73;;;4.80;99.90;;;;;;5077161;28;20324;-83
2022/12/08 02:07:07;;;;;;;18.23;10.93;;;4.90;99.90;;;;;;5077284;28;20506;-83
2022/12/08 02:09:33;;;;;;;17.67;11.73;;;4.80;99.90;;;;;;5094053;28;20058;-84
2022/12/08 02:11:59;;;;;;;20.53;11.53;;;4.80;99.90;;;;;;5076894;28;20020;-83
2022/12/08 02:14:25;;;;;;;20.87;13.00;;;4.80;99.90;;;;;;5077256;28;20039;-83
2022/12/08 02:17:09;;;;;;;22.10;13.07;;;4.80;99.90;;;;;;5076787;28;20048;-83
2022/12/08 02:20:04;;;;;;;15.32;10.25;;;4.70;99.90;;;;;;5094842;28;20059;-83
2022/12/08 02:22:59;;;;;;;16.00;10.88;;;4.80;99.90;;;;;;5093512;28;20460;-83
2022/12/08 02:25:36;;;;;;;21.30;12.90;;;4.80;99.90;;;;;;5093434;28;20103;-83
2022/12/08 02:28:35;;;;;;;20.83;11.97;;;4.80;99.90;;;;;;5093455;28;20119;-82
2022/12/08 02:31:12;;;;;;;19.00;10.90;;;4.80;99.90;;;;;;5093335;28;20020;-83
2022/12/08 02:33:57;;;;;;;18.27;12.37;;;4.80;99.90;;;;;;5093397;28;20032;-83
2022/12/08 02:36:27;;;;;;;20.10;11.95;;;4.80;99.90;;;;;;5094495;28;20099;-83
2022/12/08 02:38:55;;;;;;;16.30;10.87;;;4.90;99.90;;;;;;5093150;28;20020;-84
2022/12/08 02:41:57;;;;;;;20.60;11.50;;;4.80;99.90;;;;;;5093184;28;20082;-83
2022/12/08 02:44:27;;;;;;;17.53;10.70;;;4.80;99.90;;;;;;5093189;28;20024;-84
2022/12/08 02:47:22;;;;;;;16.37;10.27;;;4.80;99.90;;;;;;5093096;28;20098;-84
2022/12/08 02:49:48;;;;;;;16.17;10.43;;;4.80;99.90;;;;;;5093097;28;20020;-84
2022/12/08 02:52:13;;;;;;;13.50;9.03;;;4.80;99.90;;;;;;5092997;28;20024;-83
2022/12/08 02:55:05;;;;;;;14.57;8.80;;;4.80;99.90;;;;;;5094173;28;20028;-83
2022/12/08 02:57:54;;;;;;;13.13;7.60;;;4.80;99.90;;;;;;5092795;28;20052;-84
2022/12/08 03:00:22;;;;;;;13.63;8.07;;;4.80;99.90;;;;;;5092751;28;20054;-84
2022/12/08 03:03:13;;;;;;;13.60;7.93;;;4.90;99.90;;;;;;5092930;28;20376;-83
2022/12/08 03:06:00;;;;;;;13.70;7.97;;;4.80;99.90;;;;;;5094100;28;20498;-84
2022/12/08 03:08:41;;;;;;;14.40;7.80;;;4.80;99.90;;;;;;5092055;28;20032;-83
2022/12/08 03:11:25;;;;;;;12.87;7.93;;;4.80;99.90;;;;;;5092758;28;20023;-84
2022/12/08 03:13:53;;;;;;;17.40;8.15;;;4.80;99.90;;;;;;5093851;28;20023;-83
2022/12/08 03:16:24;;;;;;;14.37;8.87;;;4.80;99.90;;;;;;5092534;28;20468;-83
2022/12/08 03:19:00;;;;;;;16.93;8.40;;;4.80;99.90;;;;;;5092406;28;20020;-83
2022/12/08 03:21:28;;;;;;;12.80;7.80;;;5.00;99.90;;;;;;5092545;28;20035;-83
2022/12/08 03:23:56;;;;;;;13.33;7.73;;;4.80;99.90;;;;;;5075905;28;20381;-83
2022/12/08 03:26:47;;;;;;;15.47;8.20;;;4.80;99.90;;;;;;5092542;28;20494;-83
2022/12/08 03:29:13;;;;;;;12.40;7.37;;;4.80;99.90;;;;;;5084960;28;20043;-83
2022/12/08 03:31:44;;;;;;;11.90;6.23;;;4.90;99.90;;;;;;5092286;28;20024;-84
2022/12/08 03:34:12;;;;;;;12.47;7.17;;;4.80;99.90;;;;;;5093644;28;20028;-83
2022/12/08 03:36:38;;;;;;;12.70;7.43;;;4.80;99.90;;;;;;5092281;28;20028;-84
2022/12/08 03:39:04;;;;;;;12.97;7.10;;;4.80;99.90;;;;;;5075348;28;20486;-83
2022/12/08 03:41:30;;;;;;;13.70;7.80;;;4.80;99.90;;;;;;5075437;28;20582;-83
2022/12/08 03:43:58;;;;;;;13.57;6.50;;;4.80;99.90;;;;;;5092464;28;20356;-83
2022/12/08 03:46:26;;;;;;;13.93;7.63;;;4.80;99.90;;;;;;5092324;28;20479;-83
2022/12/08 03:48:52;;;;;;;11.53;6.47;;;4.70;99.90;;;;;;5092046;28;20035;-83
2022/12/08 03:51:18;;;;;;;12.90;6.13;;;4.80;99.90;;;;;;5092397;28;20028;-83
2022/12/08 03:53:44;;;;;;;15.07;6.30;;;4.80;99.90;;;;;;5075215;28;20119;-83
2022/12/08 03:56:27;;;;;;;9.10;5.20;;;4.80;99.90;;;;;;5075457;28;20099;-83
2022/12/08 03:58:54;;;;;;;7.43;4.23;;;4.80;99.90;;;;;;5091882;28;20220;-82
2022/12/08 04:01:20;;;;;;;8.23;5.00;;;4.80;99.90;;;;;;5092046;28;20396;-83
2022/12/08 04:03:46;;;;;;;8.07;4.23;;;4.80;99.90;;;;;;5075544;28;20028;-83
2022/12/08 04:06:12;;;;;;;7.10;3.57;;;4.80;99.90;;;;;;5075308;28;20044;-83
2022/12/08 04:08:37;;;;;;;7.60;3.50;;;4.80;99.90;;;;;;5092211;28;20161;-83
2022/12/08 04:11:05;;;;;;;6.70;3.73;;;4.80;99.90;;;;;;5093360;28;20024;-83
2022/12/08 04:13:31;;;;;;;6.37;3.37;;;4.80;99.90;;;;;;5092078;28;20035;-84
2022/12/08 04:15:57;;;;;;;8.03;3.50;;;4.80;99.90;;;;;;5075180;28;20032;-83
2022/12/08 04:18:22;;;;;;;4.83;3.10;;;4.80;99.90;;;;;;5076334;28;20036;-83
2022/12/08 04:20:48;;;;;;;8.60;3.43;;;4.80;99.90;;;;;;5078972;28;20039;-83
2022/12/08 04:23:13;;;;;;;5.00;2.77;;;4.80;99.90;;;;;;5095875;28;20099;-83
2022/12/08 04:25:39;;;;;;;9.57;3.03;;;4.80;99.90;;;;;;5097226;28;20082;-82
2022/12/08 04:28:05;;;;;;;7.60;2.93;;;4.80;99.90;;;;;;5095947;28;20016;-83
2022/12/08 04:30:31;;;;;;;5.20;2.67;;;4.80;99.90;;;;;;5097143;28;20106;-83
2022/12/08 04:32:57;;;;;;;6.10;3.17;;;4.80;99.90;;;;;;5097084;28;20063;-84
2022/12/08 04:35:23;;;;;;;5.90;3.50;;;4.70;99.90;;;;;;5078909;28;20411;-83
2022/12/08 04:37:49;;;;;;;7.47;3.30;;;4.70;99.90;;;;;;5078954;28;20071;-82
2022/12/08 04:40:14;;;;;;;5.97;3.60;;;4.80;99.90;;;;;;5078851;28;20124;-83
2022/12/08 04:42:40;;;;;;;6.17;3.30;;;4.70;99.90;;;;;;5078944;28;20055;-82
2022/12/08 04:45:06;;;;;;;8.37;3.80;;;4.70;99.90;;;;;;5095713;28;20540;-82
2022/12/08 04:47:32;;;;;;;7.87;4.27;;;4.70;99.90;;;;;;5095341;28;20169;-83
2022/12/08 04:49:58;;;;;;;5.63;3.30;;;4.70;99.90;;;;;;5097016;28;20499;-83
2022/12/08 04:52:23;;;;;;;7.67;3.77;;;4.70;99.90;;;;;;5096128;28;20106;-83
2022/12/08 04:54:49;;;;;;;10.33;4.37;;;4.80;99.90;;;;;;5096168;28;20032;-84
2022/12/08 04:57:15;;;;;;;6.50;3.53;;;4.70;99.90;;;;;;5096306;28;20129;-84
2022/12/08 04:59:40;;;;;;;7.87;4.57;;;4.90;99.90;;;;;;5079252;28;20055;-84
2022/12/08 05:02:06;;;;;;;7.90;4.70;;;4.70;99.90;;;;;;5079077;28;20115;-83
2022/12/08 05:04:32;;;;;;;7.37;4.60;;;4.70;99.90;;;;;;5078574;28;20119;-83
2022/12/08 05:06:57;;;;;;;7.33;4.53;;;4.70;99.90;;;;;;5078626;28;20031;-84
2022/12/08 05:09:23;;;;;;;9.53;5.23;;;4.80;99.90;;;;;;5078514;28;20032;-83
2022/12/08 05:11:49;;;;;;;8.40;4.43;;;4.70;99.90;;;;;;5078415;28;20369;-84
2022/12/08 05:14:16;;;;;;;7.53;4.63;;;4.70;99.90;;;;;;5078805;28;20039;-83
2022/12/08 05:16:43;;;;;;;7.87;4.50;;;4.80;99.90;;;;;;5078884;28;20040;-84
2022/12/08 05:19:08;;;;;;;9.67;5.20;;;4.70;99.90;;;;;;5078439;28;20032;-83
2022/12/08 05:21:34;;;;;;;7.60;4.50;;;4.70;99.90;;;;;;5078178;28;20029;-84
2022/12/08 05:24:00;;;;;;;8.70;4.17;;;4.60;99.90;;;;;;5077844;28;20031;-82
2022/12/08 05:26:26;;;;;;;11.43;5.37;;;4.70;99.90;;;;;;5095101;28;20032;-83
2022/12/08 05:28:52;;;;;;;9.30;4.90;;;4.70;99.90;;;;;;5078251;28;20032;-83
2022/12/08 05:31:17;;;;;;;9.03;4.70;;;4.70;99.90;;;;;;5077408;28;20035;-84
2022/12/08 05:33:44;;;;;;;7.33;4.43;;;4.60;99.90;;;;;;5094649;28;20464;-83
2022/12/08 05:36:12;;;;;;;8.33;3.83;;;4.60;99.90;;;;;;5077934;28;20069;-84
2022/12/08 05:38:38;;;;;;;7.57;3.87;;;4.60;99.90;;;;;;5094843;28;20058;-84
2022/12/08 05:41:09;;;;;;;8.77;3.87;;;4.60;99.90;;;;;;5077844;28;20024;-83
2022/12/08 05:43:34;;;;;;;8.90;3.73;;;4.60;99.90;;;;;;5094696;28;20024;-83
2022/12/08 05:46:00;;;;;;;6.13;3.00;;;4.50;99.90;;;;;;5078069;28;20043;-84
2022/12/08 05:48:26;;;;;;;4.73;2.60;;;4.60;99.90;;;;;;5094968;28;20055;-85
2022/12/08 05:50:52;;;;;;;5.63;2.33;;;4.50;99.90;;;;;;5094676;28;20031;-84
2022/12/08 05:53:19;;;;;;;5.30;1.80;;;4.60;99.90;;;;;;5077936;28;20032;-84
2022/12/08 05:55:46;;;;;;;4.97;1.50;;;4.50;99.90;;;;;;5094974;28;20036;-83
2022/12/08 05:58:15;;;;;;;2.17;0.70;;;4.50;99.90;;;;;;5077860;28;20440;-84
2022/12/08 06:00:41;;;;;;;3.13;0.60;;;4.50;99.90;;;;;;5094189;28;20759;-82
2022/12/08 06:03:09;;;;;;;5.43;0.67;;;4.40;99.90;;;;;;5094181;28;20084;-83
2022/12/08 06:05:35;;;;;;;1.67;0.60;;;4.40;99.90;;;;;;5094153;28;20020;-84
2022/12/08 06:08:01;;;;;;;1.77;0.50;;;4.30;99.90;;;;;;5094451;28;20028;-83
2022/12/08 06:10:27;;;;;;;2.33;0.37;;;4.30;99.90;;;;;;5094268;28;20028;-84
2022/12/08 06:12:52;;;;;;;1.63;0.50;;;4.50;99.90;;;;;;5094546;28;20464;-84
2022/12/08 06:15:18;;;;;;;5.33;0.70;;;4.30;99.90;;;;;;5077033;28;20037;-82
2022/12/08 06:17:44;;;;;;;2.03;0.50;;;4.30;99.90;;;;;;5076675;28;20028;-79
2022/12/08 06:20:10;;;;;;;1.43;0.60;;;4.30;99.90;;;;;;5093444;28;20055;-78
2022/12/08 06:22:36;;;;;;;2.00;0.50;;;4.30;99.90;;;;;;5093132;28;20047;-78
2022/12/08 06:25:02;;;;;;;5.50;0.70;;;4.30;99.90;;;;;;5093374;28;20448;-79
2022/12/08 06:27:28;;;;;;;4.47;0.80;;;4.20;99.90;;;;;;5093500;28;20020;-78
2022/12/08 06:29:53;;;;;;;3.03;0.70;;;4.20;99.90;;;;;;5076557;28;20020;-79
2022/12/08 06:32:19;;;;;;;3.47;0.63;;;4.20;99.90;;;;;;5094649;28;20081;-79
2022/12/08 06:34:45;;;;;;;2.40;0.80;;;4.20;99.90;;;;;;5076178;28;20032;-80
2022/12/08 06:37:10;;;;;;;3.10;0.80;;;4.20;99.90;;;;;;5092963;28;20031;-80
2022/12/08 06:39:36;;;;;;;1.70;0.80;;;4.40;99.90;;;;;;5075043;28;20103;-79
2022/12/08 06:44:47;;;;;;;2.57;0.90;;;4.20;99.90;;;;;;5093398;28;20061;-79
2022/12/08 06:47:12;;;;;;;3.57;0.90;;;4.20;99.90;;;;;;5091905;28;20035;-80
2022/12/08 06:49:38;;;;;;;3.33;1.07;;;4.20;99.90;;;;;;5094034;28;20028;-79
2022/12/08 06:52:04;;;;;;;2.50;0.90;;;4.20;99.90;;;;;;5081791;28;20033;-81
2022/12/08 06:54:30;;;;;;;2.43;0.97;;;4.20;99.90;;;;;;5081256;28;20066;-81
2022/12/08 06:56:55;;;;;;;5.30;1.43;;;4.10;99.90;;;;;;5080946;28;20032;-79
2022/12/08 06:59:21;;;;;;;7.03;1.77;;;4.20;99.90;;;;;;5073727;28;20073;-79
2022/12/08 07:01:47;;;;;;;3.27;1.20;;;4.20;99.90;;;;;;5087809;28;20142;-79
2022/12/08 07:04:12;;;;;;;2.97;1.33;;;4.20;99.90;;;;;;5073954;28;20020;-80
2022/12/08 07:06:38;;;;;;;6.13;1.50;;;4.20;99.90;;;;;;5086483;28;20020;-81
2022/12/08 07:09:04;;;;;;;3.57;1.30;;;4.20;99.90;;;;;;5091186;28;20046;-80
2022/12/08 07:11:29;;;;;;;2.80;1.43;;;4.20;99.90;;;;;;5075044;28;20024;-81
2022/12/08 07:13:56;;;;;;;3.57;1.33;;;4.20;99.90;;;;;;5074786;28;20074;-81
2022/12/08 07:16:22;;;;;;;3.27;1.30;;;4.20;99.90;;;;;;5074744;28;20079;-81
2022/12/08 07:18:48;;;;;;;4.03;1.30;;;4.20;99.90;;;;;;5092129;28;20013;-81
2022/12/08 07:21:15;;;;;;;3.47;1.30;;;4.30;99.90;;;;;;5091392;28;20073;-81
2022/12/08 07:23:41;;;;;;;4.63;1.23;;;4.20;99.90;;;;;;5107572;28;20016;-81
2022/12/08 07:26:09;;;;;;;2.70;1.20;;;4.30;99.90;;;;;;5092568;28;20042;-81
2022/12/08 07:28:37;;;;;;;2.77;1.30;;;4.20;99.90;;;;;;5091330;28;20085;-81
2022/12/08 07:31:04;;;;;;;4.23;1.30;;;4.30;99.90;;;;;;5092908;28;20023;-81
2022/12/08 07:33:30;;;;;;;3.80;1.17;;;4.20;99.90;;;;;;5092132;28;20028;-79
2022/12/08 07:36:00;;;;;;;3.50;1.20;;;4.20;99.90;;;;;;5091899;28;20043;-81
2022/12/08 07:38:27;;;;;;;3.93;1.30;;;4.20;99.90;;;;;;5092022;28;20453;-78
2022/12/08 07:40:53;;;;;;;2.63;1.20;;;4.20;99.90;;;;;;5091999;28;20111;-78
2022/12/08 07:43:19;;;;;;;4.43;1.33;;;4.30;99.90;;;;;;5108603;28;20017;-78
2022/12/08 07:45:45;;;;;;;3.17;1.23;;;4.30;99.90;;;;;;5107701;28;20020;-79
2022/12/08 07:48:11;;;;;;;4.27;1.10;;;4.30;99.90;;;;;;5092088;28;20032;-79
2022/12/08 07:50:37;;;;;;;2.63;1.10;;;4.30;99.90;;;;;;5092799;28;20032;-79
2022/12/08 07:53:04;;;;;;;3.70;0.90;;;4.30;99.90;;;;;;5105249;28;20036;-79
2022/12/08 07:55:29;;;;;;;2.60;0.70;;;4.20;99.90;;;;;;5089955;28;20020;-81
2022/12/08 07:57:55;;;;;;;1.87;0.67;;;4.20;99.90;;;;;;5090132;28;20020;-79
2022/12/08 08:00:21;;;;;;;3.13;0.67;;;4.20;99.90;;;;;;5091050;28;20110;-81
2022/12/08 08:02:46;;;;;;;1.77;0.60;;;4.20;99.90;;;;;;5091866;28;20104;-80
2022/12/08 08:05:12;;;;;;;3.97;0.73;;;4.20;99.90;;;;;;5091762;28;20031;-81
2022/12/08 08:07:40;;;;;;;1.60;1.10;;;4.20;99.90;;;;;;5091136;28;20491;-81
2022/12/08 08:10:07;;;;;;;2.60;0.70;;;4.20;99.90;;;;;;5108763;28;20036;-81
2022/12/08 08:12:32;;;;;;;1.67;0.50;;;4.20;99.90;;;;;;5074983;28;20031;-81
2022/12/08 08:14:59;;;;;;;2.57;0.50;;;4.20;99.90;;;;;;5108375;28;20024;-81
2022/12/08 08:17:24;;;;;;;1.47;0.50;;;4.20;99.90;;;;;;5074971;28;20024;-81
2022/12/08 08:19:50;;;;;;;1.23;0.40;;;4.20;99.90;;;;;;5074783;28;20089;-81
2022/12/08 08:22:15;;;;;;;3.77;0.60;;;4.20;99.90;;;;;;5091878;28;20024;-81
2022/12/08 08:24:41;;;;;;;1.23;0.50;;;4.10;99.90;;;;;;5074832;28;20025;-81
2022/12/08 08:27:07;;;;;;;1.67;0.50;;;4.20;99.90;;;;;;5074885;28;20023;-82
2022/12/08 08:29:32;;;;;;;3.80;0.70;;;4.20;99.90;;;;;;5092937;28;20028;-81
2022/12/08 08:31:58;;;;;;;1.20;0.50;;;4.30;99.90;;;;;;5092798;28;20027;-81
2022/12/08 08:34:24;;;;;;;1.60;0.50;;;4.30;99.90;;;;;;5074714;28;20032;-81
2022/12/08 08:36:50;;;;;;;4.33;0.80;;;4.30;99.90;;;;;;5091207;28;20059;-81
2022/12/08 08:39:15;;;;;;;2.00;0.80;;;4.40;99.90;;;;;;5090828;28;20515;-81
2022/12/08 08:41:41;;;;;;;2.80;1.10;;;4.30;99.90;;;;;;5092338;28;20020;-81
2022/12/08 08:44:07;;;;;;;3.80;0.87;;;4.40;99.90;;;;;;5091486;28;20487;-81
2022/12/08 08:46:32;;;;;;;2.47;0.73;;;4.40;99.90;;;;;;5107124;28;20036;-81
2022/12/08 08:48:58;;;;;;;2.07;0.80;;;4.50;99.90;;;;;;5107740;28;20020;-81
2022/12/08 08:51:24;;;;;;;3.40;0.60;;;4.40;99.90;;;;;;5091299;28;20518;-81
2022/12/08 08:53:49;;;;;;;2.73;0.60;;;4.40;99.90;;;;;;5091696;28;20024;-81
2022/12/08 08:56:18;;;;;;;1.70;0.63;;;4.30;99.90;;;;;;5091550;28;20028;-81
2022/12/08 08:58:45;;;;;;;1.57;0.70;;;4.40;99.90;;;;;;5091432;28;20047;-81
2022/12/08 09:01:19;;;;;;;2.70;0.87;;;4.50;99.90;;;;;;5091161;28;20032;-81
2022/12/08 09:03:46;;;;;;;4.20;0.90;;;4.40;99.90;;;;;;5108259;28;20016;-81
2022/12/08 09:06:12;;;;;;;1.70;0.80;;;4.40;99.90;;;;;;5076935;28;20081;-81
2022/12/08 09:08:38;;;;;;;3.43;0.77;;;4.40;99.90;;;;;;5095007;28;20377;-81
2022/12/08 09:11:03;;;;;;;2.53;0.80;;;4.40;99.90;;;;;;5094798;28;20040;-82
2022/12/08 09:13:29;;;;;;;3.80;1.00;;;4.50;99.90;;;;;;5093876;28;20418;-81
2022/12/08 09:15:55;;;;;;;2.90;1.10;;;4.50;99.90;;;;;;5094881;28;20029;-81
2022/12/08 09:18:20;;;;;;;1.50;0.70;;;4.60;99.90;;;;;;5094033;28;20047;-82
2022/12/08 09:20:46;;;;;;;2.00;0.90;;;4.60;99.90;;;;;;5094247;28;20028;-81
2022/12/08 09:23:11;;;;;;;2.00;0.93;;;4.60;99.90;;;;;;5077376;28;20028;-82
2022/12/08 09:25:37;;;;;;;2.47;1.00;;;4.60;99.90;;;;;;5094465;28;20023;-82
2022/12/08 09:28:03;;;;;;;2.90;1.00;;;4.70;99.90;;;;;;5094175;28;20524;-82
2022/12/08 09:30:28;;;;;;;2.50;0.97;;;4.80;99.90;;;;;;5095327;28;20035;-82
2022/12/08 09:32:54;;;;;;;3.60;1.33;;;4.80;99.90;;;;;;5110972;28;20020;-82
2022/12/08 09:35:20;;;;;;;4.13;1.27;;;4.80;99.90;;;;;;5110620;28;20403;-82
2022/12/08 09:37:45;;;;;;;3.93;1.53;;;4.80;99.90;;;;;;5077492;28;20123;-82
2022/12/08 09:40:17;;;;;;;3.57;1.33;;;4.80;99.90;;;;;;5077381;28;20044;-82
2022/12/08 09:43:04;;;;;;;3.20;1.30;;;4.80;99.90;;;;;;5111288;28;20384;-82
2022/12/08 09:45:34;;;;;;;3.30;1.10;;;4.80;99.90;;;;;;5094193;28;20024;-82
2022/12/08 09:48:05;;;;;;;3.10;1.30;;;4.80;99.90;;;;;;5093398;28;20430;-82
2022/12/08 09:50:36;;;;;;;2.50;1.23;;;4.80;99.90;;;;;;5092035;28;20581;-82
2022/12/08 09:53:25;;;;;;;3.30;1.60;;;4.80;99.90;;;;;;5092482;28;20027;-82
2022/12/08 09:55:55;;;;;;;5.57;1.63;;;4.80;99.90;;;;;;5095322;28;20020;-82
2022/12/08 09:58:26;;;;;;;4.20;1.37;;;4.70;99.90;;;;;;5094025;28;20020;-82
2022/12/08 10:00:52;;;;;;;3.90;1.53;;;4.80;99.90;;;;;;5093681;28;20042;-82
2022/12/08 10:03:19;;;;;;;2.83;1.30;;;4.80;99.90;;;;;;5077079;28;20772;-80
2022/12/08 10:05:56;;;;;;;3.27;1.23;;;4.80;99.90;;;;;;5094045;28;20035;-80
2022/12/08 10:08:32;;;;;;;3.63;1.70;;;4.80;99.90;;;;;;5093876;28;20024;-81
2022/12/08 10:11:03;;;;;;;4.40;2.07;;;4.70;99.90;;;;;;5093696;28;20088;-81
2022/12/08 10:14:10;;;;;;;4.50;2.20;;;4.80;99.90;;;;;;5094821;28;20028;-80
2022/12/08 10:16:40;;;;;;;3.73;1.83;;;4.80;99.90;;;;;;5094663;28;20023;-79
2022/12/08 10:19:21;;;;;;;4.20;1.97;;;4.90;99.90;;;;;;5094706;28;20531;-81
2022/12/08 10:21:48;;;;;;;2.80;1.43;;;4.80;99.90;;;;;;5093444;28;20107;-79
2022/12/08 10:24:33;;;;;;;1.80;0.80;;;4.90;99.90;;;;;;5094601;28;20468;-79
2022/12/08 10:27:01;;;;;;;1.83;0.80;;;4.90;99.90;;;;;;5093478;28;20024;-82
2022/12/08 10:29:27;;;;;;;2.57;0.80;;;4.90;99.90;;;;;;5076596;28;20032;-83
2022/12/08 10:31:54;;;;;;;2.70;0.70;;;4.90;99.90;;;;;;5093332;28;20376;-82
2022/12/08 10:34:23;;;;;;;1.77;0.70;;;5.00;99.90;;;;;;5093223;28;20031;-83
2022/12/08 10:36:57;;;;;;;2.00;0.60;;;4.90;99.90;;;;;;5093095;28;20115;-82
2022/12/08 10:39:38;;;;;;;1.77;0.60;;;4.90;99.90;;;;;;5093026;28;20116;-82
2022/12/08 10:42:15;;;;;;;2.20;0.60;;;4.90;99.90;;;;;;5094444;28;20541;-81
2022/12/08 10:44:56;;;;;;;1.83;0.77;;;4.90;99.90;;;;;;5093102;28;20468;-82
2022/12/08 10:47:25;;;;;;;1.40;0.57;;;5.00;99.90;;;;;;5092815;28;20058;-82
2022/12/08 10:50:07;;;;;;;2.07;0.60;;;5.00;99.90;;;;;;5094315;28;20020;-82
2022/12/08 10:52:39;;;;;;;1.03;0.60;;;5.00;99.90;;;;;;5093069;28;20058;-82
2022/12/08 10:55:14;;;;;;;1.90;0.80;;;4.90;99.90;;;;;;5092850;28;20024;-82
2022/12/08 10:57:40;;;;;;;2.30;0.97;;;5.00;99.90;;;;;;5094167;28;20056;-82
2022/12/08 11:00:06;;;;;;;3.23;0.80;;;4.90;99.90;;;;;;5075773;28;20087;-82
2022/12/08 11:02:33;;;;;;;1.20;0.70;;;5.00;99.90;;;;;;5092726;28;20085;-83
2022/12/08 11:04:59;;;;;;;1.97;0.80;;;5.00;99.90;;;;;;5092682;28;20357;-82
2022/12/08 11:07:25;;;;;;;1.83;0.80;;;5.20;99.90;;;;;;5075763;28;20031;-82
2022/12/08 11:09:57;;;;;;;2.67;1.40;;;5.10;99.90;;;;;;5075689;28;20024;-83
2022/12/08 11:12:28;;;;;;;3.33;1.40;;;5.00;99.90;;;;;;5092507;28;20110;-82
2022/12/08 11:15:01;;;;;;;2.87;1.20;;;5.10;99.90;;;;;;5093915;28;20391;-83
2022/12/08 11:17:34;;;;;;;2.67;1.55;;;5.10;99.90;;;;;;5092616;28;20034;-82
2022/12/08 11:20:21;;;;;;;5.73;1.60;;;5.10;99.90;;;;;;5076493;28;20384;-83
2022/12/08 11:22:54;;;;;;;2.77;1.53;;;5.10;99.90;;;;;;5093718;28;20380;-83
2022/12/08 11:25:21;;;;;;;3.30;1.48;;;5.10;99.90;;;;;;5092290;28;20020;-83
2022/12/08 11:27:55;;;;;;;4.40;1.83;;;5.20;99.90;;;;;;5094194;28;20094;-80
2022/12/08 11:30:28;;;;;;;2.85;1.40;;;5.10;99.90;;;;;;5092365;28;20055;-83
2022/12/08 11:33:15;;;;;;;4.28;1.85;;;5.20;99.90;;;;;;5092281;28;20431;-83
2022/12/08 11:35:43;;;;;;;4.87;1.97;;;5.20;99.90;;;;;;5092428;28;20027;-83
2022/12/08 11:38:39;;;;;;;4.73;2.33;;;5.20;99.90;;;;;;5092421;28;20384;-79
2022/12/08 11:41:09;;;;;;;5.40;2.30;;;5.10;99.90;;;;;;5092559;28;20032;-80
2022/12/08 11:43:40;;;;;;;4.20;2.27;;;5.10;99.90;;;;;;5092350;28;20020;-80
2022/12/08 11:46:35;;;;;;;6.53;2.20;;;5.20;99.90;;;;;;5091926;28;20476;-79
2022/12/08 11:49:05;;;;;;;3.70;1.90;;;5.20;99.90;;;;;;5090980;28;20052;-80
2022/12/08 11:51:38;;;;;;;4.40;1.87;;;5.20;99.90;;;;;;5092131;28;20451;-79
2022/12/08 11:54:19;;;;;;;4.03;2.15;;;5.10;99.90;;;;;;5092036;28;20115;-79
2022/12/08 11:56:54;;;;;;;6.23;2.53;;;5.20;99.90;;;;;;5093623;28;20036;-80
2022/12/08 11:59:48;;;;;;;4.93;1.80;;;5.10;99.90;;;;;;5092609;28;20039;-79
2022/12/08 12:02:22;;;;;;;3.75;2.05;;;5.10;99.90;;;;;;5094538;28;20009;-79
2022/12/08 12:05:01;;;;;;;4.90;2.23;;;5.10;99.90;;;;;;5093788;28;20024;-79
2022/12/08 12:07:46;;;;;;;4.67;2.10;;;5.10;99.90;;;;;;5094058;28;20062;-79
2022/12/08 12:10:11;;;;;;;;;;;5.00;99.90;;;;;;5092402;28;20032;-79
2022/12/08 12:13:03;;;;;;;3.93;1.87;;;5.00;99.90;;;;;;5091845;28;19907;-79
2022/12/08 12:15:47;;;;;;;3.00;1.50;;;5.00;99.90;;;;;;5091760;28;20028;-79
2022/12/08 12:18:44;;;;;;;3.37;1.80;;;5.00;99.90;;;;;;5091856;28;20021;-81
2022/12/08 12:21:17;;;;;;;3.80;1.80;;;5.00;99.90;;;;;;5091781;28;20050;-81
2022/12/08 12:24:15;;;;;;;6.68;1.73;;;5.00;99.90;;;;;;5091725;28;20028;-81
2022/12/08 12:27:06;;;;;;;3.37;1.53;;;5.00;99.90;;;;;;5091140;28;20040;-79
2022/12/08 12:29:36;;;;;;;4.20;1.07;;;5.00;99.90;;;;;;5091596;28;20069;-79
2022/12/08 12:32:07;;;;;;;1.97;0.70;;;5.00;99.90;;;;;;5092908;28;20028;-79
2022/12/08 12:34:59;;;;;;;1.67;0.80;;;5.00;99.90;;;;;;5092873;28;20058;-79
2022/12/08 12:37:36;;;;;;;2.80;0.70;;;5.00;99.90;;;;;;5091876;28;20123;-79
2022/12/08 12:40:16;;;;;;;2.90;0.60;;;5.00;99.90;;;;;;5093751;28;20063;-79
2022/12/08 12:43:11;;;;;;;1.47;0.50;;;5.00;99.90;;;;;;5096664;28;20020;-79
2022/12/08 12:45:42;;;;;;;1.65;0.40;;;5.00;99.90;;;;;;5093911;28;20032;-80
2022/12/08 12:48:08;;;;;;;0.97;0.30;;;5.00;99.90;;;;;;5095383;28;20472;-79
2022/12/08 12:50:33;;;;;;;1.60;0.53;;;5.10;99.90;;;;;;5095159;28;20028;-79
2022/12/08 12:53:25;;;;;;;2.93;0.40;;;5.00;99.90;;;;;;5096374;28;20028;-79
2022/12/08 12:55:56;;;;;;;1.50;0.40;;;5.10;99.90;;;;;;5094976;28;20031;-79
2022/12/08 12:58:28;;;;;;;1.33;0.40;;;5.10;99.90;;;;;;5095048;28;20024;-79
2022/12/08 13:01:20;;;;;;;2.00;0.30;;;5.10;99.90;;;;;;5094976;28;20452;-79
2022/12/08 13:04:11;;;;;;;1.10;0.30;;;5.20;99.90;;;;;;5079245;28;20430;-79
2022/12/08 13:06:47;;;;;;;2.67;0.30;;;5.20;99.90;;;;;;5095950;28;20020;-79
2022/12/08 13:09:42;;;;;;;1.70;0.20;;;5.30;99.90;;;;;;5096234;28;20032;-80
2022/12/08 13:12:18;;;;;;;1.67;0.20;;;5.20;99.90;;;;;;5086566;28;20044;-80
2022/12/08 13:14:47;;;;;;;1.23;0.20;;;5.20;99.90;;;;;;5094678;28;20467;-79
2022/12/08 13:17:23;;;;;;;1.30;0.20;;;5.30;99.90;;;;;;5096115;28;20028;-79